Time;durP1;ratioP1;P1;durP2;ratioP2;P2;SDS_P1;SDS_P2;PMS_P1;PMS_P2;Temp;Humidity;BMP_temperature;BMP_pressure;BME280_temperature;BME280_humidity;BME280_pressure;Samples;Min_cycle;Max_cycle;Signal;HPM_P1;HPM_P2
2022/06/18 00:00:30;;;;;;;3.40;3.20;;;21.60;99.90;;;;;;5074085;28;20200;-63
2022/06/18 00:03:00;;;;;;;4.00;3.37;;;21.60;99.90;;;;;;5062731;28;20322;-63
2022/06/18 00:05:29;;;;;;;3.83;3.60;;;21.60;99.90;;;;;;5060331;28;20223;-63
2022/06/18 00:07:58;;;;;;;3.77;3.43;;;21.60;99.90;;;;;;5064822;28;20207;-63
2022/06/18 00:10:30;;;;;;;4.13;3.20;;;21.60;99.90;;;;;;5038586;28;20198;-63
2022/06/18 00:16:05;;;;;;;3.93;3.33;;;21.70;99.90;;;;;;5061557;28;20199;-63
2022/06/18 00:18:35;;;;;;;6.93;3.50;;;21.80;99.90;;;;;;5065292;28;20279;-63
2022/06/18 00:21:06;;;;;;;5.63;3.80;;;21.80;99.90;;;;;;5068324;28;20204;-63
2022/06/18 00:23:37;;;;;;;4.97;3.43;;;21.80;99.90;;;;;;5063054;28;20208;-63
2022/06/18 00:26:05;;;;;;;3.80;3.50;;;21.80;99.90;;;;;;5047030;28;20659;-63
2022/06/18 00:28:36;;;;;;;5.53;3.80;;;21.70;99.90;;;;;;5066866;28;20210;-63
2022/06/18 00:31:05;;;;;;;5.13;3.90;;;21.60;99.90;;;;;;5071470;28;20710;-63
2022/06/18 00:33:39;;;;;;;6.37;3.70;;;21.60;99.90;;;;;;5070947;28;20618;-63
2022/06/18 00:36:15;;;;;;;7.87;3.83;;;21.60;99.90;;;;;;5063498;28;20603;-63
2022/06/18 00:38:46;;;;;;;5.97;3.73;;;21.70;99.90;;;;;;5066493;28;20222;-63
2022/06/18 00:41:19;;;;;;;4.80;3.77;;;21.70;99.90;;;;;;5050766;28;20252;-63
2022/06/18 00:43:52;;;;;;;5.63;3.70;;;21.70;99.90;;;;;;5066674;28;20673;-63
2022/06/18 00:46:26;;;;;;;7.70;3.80;;;21.70;99.90;;;;;;5068508;28;20196;-63
2022/06/18 00:49:02;;;;;;;5.13;3.80;;;21.70;99.90;;;;;;5065946;28;20595;-63
2022/06/18 00:51:36;;;;;;;9.87;3.80;;;21.70;99.90;;;;;;5065346;28;20191;-63
2022/06/18 00:54:08;;;;;;;6.83;4.10;;;21.60;99.90;;;;;;5066753;28;21082;-63
2022/06/18 00:56:57;;;;;;;3.93;3.60;;;21.60;99.90;;;;;;5065803;28;20203;-63
2022/06/18 00:59:34;;;;;;;6.00;3.73;;;21.60;99.90;;;;;;5065781;28;20196;-63
2022/06/18 01:02:03;;;;;;;8.37;3.70;;;21.60;99.90;;;;;;5047570;28;20659;-63
2022/06/18 01:04:35;;;;;;;3.47;3.17;;;21.60;99.90;;;;;;5066355;28;20604;-63
2022/06/18 01:07:14;;;;;;;6.37;4.20;;;21.40;99.90;;;;;;5066767;28;20717;-63
2022/06/18 01:09:47;;;;;;;7.57;4.20;;;21.40;99.90;;;;;;5069169;28;20207;-63
2022/06/18 01:12:16;;;;;;;4.00;3.77;;;21.40;99.90;;;;;;5066011;28;20199;-63
2022/06/18 01:14:45;;;;;;;3.73;3.43;;;21.40;99.90;;;;;;5082696;28;20199;-63
2022/06/18 01:17:14;;;;;;;8.17;3.90;;;21.40;99.90;;;;;;5057873;28;20192;-63
2022/06/18 01:19:48;;;;;;;5.13;3.90;;;21.30;99.90;;;;;;5066045;28;20207;-63
2022/06/18 01:22:29;;;;;;;6.07;3.87;;;21.30;99.90;;;;;;5063606;28;20224;-63
2022/06/18 01:24:59;;;;;;;5.20;3.70;;;21.30;99.90;;;;;;5066358;28;20227;-63
2022/06/18 01:27:28;;;;;;;4.23;3.73;;;21.20;99.90;;;;;;5065480;28;20196;-64
2022/06/18 01:29:56;;;;;;;4.03;3.73;;;21.30;99.90;;;;;;5066071;28;20228;-63
2022/06/18 01:32:25;;;;;;;7.13;4.30;;;21.30;99.90;;;;;;5068505;28;20207;-63
2022/06/18 01:34:54;;;;;;;6.90;3.90;;;21.20;99.90;;;;;;5069422;28;20246;-63
2022/06/18 01:37:22;;;;;;;3.77;3.57;;;21.20;99.90;;;;;;5051599;28;20811;-63
2022/06/18 01:39:51;;;;;;;6.50;3.70;;;21.30;99.90;;;;;;5069503;28;20195;-63
2022/06/18 01:42:26;;;;;;;5.53;3.70;;;21.30;99.90;;;;;;5065442;28;20253;-63
2022/06/18 01:45:00;;;;;;;3.97;3.60;;;21.30;99.90;;;;;;5069000;28;20286;-63
2022/06/18 01:47:34;;;;;;;5.17;3.60;;;21.30;99.90;;;;;;5050366;28;20218;-63
2022/06/18 01:50:13;;;;;;;7.33;4.20;;;21.30;99.90;;;;;;5063993;28;20231;-63
2022/06/18 01:52:45;;;;;;;7.00;4.20;;;21.30;99.90;;;;;;5062992;28;20192;-63
2022/06/18 01:55:17;;;;;;;4.77;4.07;;;21.30;99.90;;;;;;5072533;28;20275;-63
2022/06/18 01:57:51;;;;;;;5.73;4.10;;;21.30;99.90;;;;;;5066438;28;20206;-63
2022/06/18 02:00:23;;;;;;;5.93;3.97;;;21.20;99.90;;;;;;5066147;28;20307;-63
2022/06/18 02:02:52;;;;;;;3.93;3.63;;;21.10;99.90;;;;;;5067548;28;20259;-63
2022/06/18 02:05:23;;;;;;;4.63;3.80;;;21.10;99.90;;;;;;5060237;28;20208;-63
2022/06/18 02:07:52;;;;;;;8.10;4.00;;;21.00;99.90;;;;;;5067193;28;20282;-63
2022/06/18 02:10:24;;;;;;;3.80;3.47;;;21.00;99.90;;;;;;5071856;28;20204;-63
2022/06/18 02:12:57;;;;;;;11.20;4.00;;;20.90;99.90;;;;;;5064158;28;20212;-63
2022/06/18 02:15:32;;;;;;;5.27;3.53;;;20.90;99.90;;;;;;5050410;28;20192;-63
2022/06/18 02:18:06;;;;;;;4.10;3.70;;;20.80;99.90;;;;;;5064186;28;20307;-63
2022/06/18 02:20:40;;;;;;;4.40;4.00;;;20.80;99.90;;;;;;5079319;28;20205;-63
2022/06/18 02:23:08;;;;;;;6.93;4.07;;;20.80;99.90;;;;;;5067759;28;20223;-63
2022/06/18 02:25:38;;;;;;;4.50;4.00;;;20.70;99.90;;;;;;5067949;28;20294;-63
2022/06/18 02:28:19;;;;;;;6.93;4.13;;;20.60;99.90;;;;;;5065290;28;20885;-63
2022/06/18 02:30:48;;;;;;;6.23;4.77;;;20.60;99.90;;;;;;5063012;28;20641;-63
2022/06/18 02:33:28;;;;;;;8.37;4.80;;;20.50;99.90;;;;;;5062448;28;20688;-63
2022/06/18 02:35:58;;;;;;;7.80;4.10;;;20.40;99.90;;;;;;5065082;28;20224;-63
2022/06/18 02:38:26;;;;;;;6.33;4.13;;;20.40;99.90;;;;;;5066688;28;20250;-63
2022/06/18 02:40:54;;;;;;;4.53;4.10;;;20.30;99.90;;;;;;5068190;28;20207;-63
2022/06/18 02:43:24;;;;;;;7.63;4.50;;;20.20;99.90;;;;;;5065513;28;20200;-63
2022/06/18 02:45:56;;;;;;;6.03;4.37;;;20.20;99.90;;;;;;5062102;28;20220;-63
2022/06/18 02:48:29;;;;;;;5.00;4.50;;;20.10;99.90;;;;;;5063868;28;20189;-63
2022/06/18 02:51:00;;;;;;;4.80;4.37;;;20.00;99.90;;;;;;5068516;28;20219;-63
2022/06/18 02:53:30;;;;;;;7.47;5.03;;;19.90;99.90;;;;;;5065865;28;20202;-63
2022/06/18 02:56:03;;;;;;;7.53;4.83;;;19.90;99.90;;;;;;5067116;28;20232;-63
2022/06/18 02:58:36;;;;;;;8.17;4.50;;;19.80;99.90;;;;;;5064717;28;20204;-63
2022/06/18 03:01:11;;;;;;;5.90;4.50;;;19.80;99.90;;;;;;5067471;28;20202;-63
2022/06/18 03:03:43;;;;;;;5.77;4.60;;;19.70;99.90;;;;;;5066716;28;20254;-62
2022/06/18 03:06:12;;;;;;;6.13;4.70;;;19.60;99.90;;;;;;5064355;28;20224;-63
2022/06/18 03:08:41;;;;;;;4.90;4.50;;;19.60;99.90;;;;;;5067349;28;20224;-63
2022/06/18 03:13:57;;;;;;;5.53;5.03;;;19.50;99.90;;;;;;5065314;28;20575;-63
2022/06/18 03:16:26;;;;;;;6.77;4.57;;;19.50;99.90;;;;;;5061690;28;20192;-62
2022/06/18 03:18:58;;;;;;;8.57;5.20;;;19.40;99.90;;;;;;5059899;28;20216;-63
2022/06/18 03:21:34;;;;;;;6.27;5.20;;;19.30;99.90;;;;;;5060467;28;20220;-63
2022/06/18 03:24:03;;;;;;;5.60;5.07;;;19.30;99.90;;;;;;5067405;28;20209;-63
2022/06/18 03:26:32;;;;;;;6.33;4.63;;;19.30;99.90;;;;;;5045929;28;20216;-63
2022/06/18 03:29:02;;;;;;;7.30;5.10;;;19.20;99.90;;;;;;5066405;28;20196;-63
2022/06/18 03:31:30;;;;;;;7.13;4.90;;;19.20;99.90;;;;;;5065052;28;20662;-62
2022/06/18 03:33:59;;;;;;;7.00;4.97;;;19.10;99.90;;;;;;5066928;28;20188;-63
2022/06/18 03:36:28;;;;;;;7.30;5.17;;;19.10;99.90;;;;;;5045860;28;20184;-62
2022/06/18 03:38:56;;;;;;;8.90;5.50;;;19.10;99.90;;;;;;5058860;28;20940;-62
2022/06/18 03:41:25;;;;;;;8.03;5.40;;;19.00;99.90;;;;;;5069213;28;20732;-63
2022/06/18 03:43:54;;;;;;;9.13;5.40;;;19.00;99.90;;;;;;5060570;28;20290;-63
2022/06/18 03:46:24;;;;;;;10.50;5.87;;;19.00;99.90;;;;;;5062945;28;20230;-63
2022/06/18 03:48:55;;;;;;;7.37;4.70;;;18.90;99.90;;;;;;5059048;28;20212;-62
2022/06/18 03:51:25;;;;;;;5.50;4.90;;;18.90;99.90;;;;;;5069868;28;20188;-63
2022/06/18 03:53:57;;;;;;;6.70;5.30;;;18.90;99.90;;;;;;5051317;28;20206;-63
2022/06/18 03:56:28;;;;;;;8.57;4.97;;;18.90;99.90;;;;;;5069149;28;20211;-63
2022/06/18 03:58:57;;;;;;;5.83;5.40;;;18.90;99.90;;;;;;5067649;28;20192;-63
2022/06/18 04:01:30;;;;;;;6.93;5.83;;;18.90;99.90;;;;;;5069096;28;20291;-63
2022/06/18 04:03:59;;;;;;;10.00;5.43;;;18.90;99.90;;;;;;5048169;28;20222;-63
2022/06/18 04:06:29;;;;;;;7.20;5.73;;;18.90;99.90;;;;;;5052329;28;20277;-63
2022/06/18 04:09:00;;;;;;;8.00;6.03;;;18.80;99.90;;;;;;5068243;28;20200;-63
2022/06/18 04:11:28;;;;;;;6.23;5.63;;;18.80;99.90;;;;;;5057213;28;20202;-63
2022/06/18 04:13:56;;;;;;;5.77;5.27;;;18.90;99.90;;;;;;5050210;28;20202;-63
2022/06/18 04:16:27;;;;;;;8.90;5.67;;;18.90;99.90;;;;;;5068662;28;20267;-63
2022/06/18 04:18:55;;;;;;;6.50;5.73;;;18.90;99.90;;;;;;5067369;28;20255;-63
2022/06/18 04:21:24;;;;;;;10.10;5.33;;;18.90;99.90;;;;;;5050469;28;20196;-63
2022/06/18 04:23:53;;;;;;;7.77;5.70;;;18.80;99.90;;;;;;5070659;28;20196;-63
2022/06/18 04:26:21;;;;;;;7.30;5.20;;;18.90;99.90;;;;;;5064430;28;20201;-63
2022/06/18 04:28:49;;;;;;;13.20;6.33;;;18.90;99.90;;;;;;5065401;28;20291;-63
2022/06/18 04:31:18;;;;;;;9.67;6.27;;;18.90;99.90;;;;;;5073172;28;20766;-62
2022/06/18 04:33:47;;;;;;;10.70;5.87;;;18.90;99.90;;;;;;5068071;28;20212;-63
2022/06/18 04:36:29;;;;;;;7.90;5.60;;;19.00;99.90;;;;;;5068293;28;20253;-63
2022/06/18 04:38:58;;;;;;;5.80;5.20;;;19.00;99.90;;;;;;5066125;28;20204;-63
2022/06/18 04:41:26;;;;;;;11.17;6.00;;;19.10;99.90;;;;;;5052441;28;20561;-63
2022/06/18 04:43:55;;;;;;;9.57;6.00;;;19.10;99.90;;;;;;5047891;28;20728;-63
2022/06/18 04:46:24;;;;;;;6.47;5.60;;;19.20;99.90;;;;;;5069472;28;20200;-63
2022/06/18 04:48:54;;;;;;;7.67;5.23;;;19.20;99.90;;;;;;5066616;28;20334;-63
2022/06/18 04:51:22;;;;;;;11.77;5.70;;;19.20;99.90;;;;;;5068976;28;20711;-63
2022/06/18 04:53:51;;;;;;;8.73;5.47;;;19.30;99.90;;;;;;5067877;28;20260;-63
2022/06/18 04:56:19;;;;;;;6.20;5.60;;;19.30;99.90;;;;;;5062499;28;20207;-63
2022/06/18 04:58:48;;;;;;;7.30;5.50;;;19.40;99.90;;;;;;5068616;28;20196;-63
2022/06/18 05:01:18;;;;;;;5.90;5.30;;;19.50;99.90;;;;;;5067958;28;20204;-63
2022/06/18 05:03:47;;;;;;;8.60;6.40;;;19.60;99.90;;;;;;5065440;28;20236;-63
2022/06/18 05:06:17;;;;;;;10.00;6.00;;;19.70;99.90;;;;;;5067730;28;20196;-63
2022/06/18 05:08:45;;;;;;;9.37;5.73;;;19.80;99.90;;;;;;5081206;28;20204;-63
2022/06/18 05:11:14;;;;;;;7.27;6.00;;;19.90;99.90;;;;;;5071441;28;20200;-63
2022/06/18 05:13:43;;;;;;;7.00;5.60;;;19.90;99.90;;;;;;5067366;28;20229;-63
2022/06/18 05:16:12;;;;;;;8.30;6.07;;;20.00;99.90;;;;;;5065188;28;20287;-63
2022/06/18 05:18:45;;;;;;;7.33;5.90;;;20.10;99.90;;;;;;5066202;28;20234;-63
2022/06/18 05:21:14;;;;;;;6.60;5.90;;;20.20;99.90;;;;;;5073540;28;20188;-63
2022/06/18 05:23:44;;;;;;;9.73;6.07;;;20.30;99.90;;;;;;5050557;28;20795;-63
2022/06/18 05:26:15;;;;;;;6.27;5.27;;;20.40;99.90;;;;;;5065877;28;20204;-63
2022/06/18 05:28:43;;;;;;;8.40;5.70;;;20.50;99.90;;;;;;5051702;28;20219;-63
2022/06/18 05:31:12;;;;;;;12.80;5.40;;;20.60;99.90;;;;;;5064945;28;20585;-63
2022/06/18 05:33:41;;;;;;;8.53;5.70;;;20.70;99.90;;;;;;5058620;28;20636;-63
2022/06/18 05:36:19;;;;;;;6.33;4.70;;;20.80;99.90;;;;;;5064254;28;20219;-63
2022/06/18 05:38:53;;;;;;;8.37;5.23;;;20.90;99.90;;;;;;5067813;28;20192;-63
2022/06/18 05:41:22;;;;;;;9.07;5.30;;;21.00;99.90;;;;;;5067756;28;20645;-63
2022/06/18 05:43:52;;;;;;;6.70;5.07;;;21.10;99.90;;;;;;5063511;28;20269;-63
2022/06/18 05:46:21;;;;;;;8.30;5.40;;;21.20;99.90;;;;;;5062042;28;20219;-63
2022/06/18 05:48:49;;;;;;;8.03;5.57;;;21.40;99.90;;;;;;5062583;28;20295;-63
2022/06/18 05:51:18;;;;;;;6.73;4.70;;;21.50;99.90;;;;;;5067302;28;20653;-63
2022/06/18 05:53:46;;;;;;;10.33;5.83;;;21.60;99.90;;;;;;5048427;28;20196;-63
2022/06/18 05:56:16;;;;;;;9.67;5.90;;;21.70;99.90;;;;;;5064142;28;20269;-63
2022/06/18 05:58:45;;;;;;;11.93;5.63;;;21.90;99.90;;;;;;5062087;28;20196;-63
2022/06/18 06:01:13;;;;;;;8.17;5.40;;;22.00;99.90;;;;;;5065007;28;20308;-63
2022/06/18 06:03:42;;;;;;;10.33;5.33;;;22.20;99.90;;;;;;5068727;28;20234;-63
2022/06/18 06:06:11;;;;;;;11.20;4.93;;;22.40;99.90;;;;;;5067701;28;20207;-63
2022/06/18 06:08:39;;;;;;;11.07;5.27;;;22.40;99.90;;;;;;5079527;28;20214;-63
2022/06/18 06:13:58;;;;;;;10.33;5.03;;;22.60;99.90;;;;;;5068550;28;20710;-63
2022/06/18 06:16:27;;;;;;;7.37;4.80;;;22.60;99.90;;;;;;5068262;28;20183;-63
2022/06/18 06:18:55;;;;;;;5.17;4.50;;;22.70;99.90;;;;;;5042987;28;20193;-64
2022/06/18 06:21:24;;;;;;;4.80;3.93;;;22.70;99.90;;;;;;5069743;28;20206;-63
2022/06/18 06:23:53;;;;;;;10.00;5.23;;;22.90;99.90;;;;;;5067088;28;20207;-63
2022/06/18 06:26:25;;;;;;;9.07;4.90;;;22.90;99.90;;;;;;5065136;28;20639;-63
2022/06/18 06:28:53;;;;;;;8.57;4.70;;;23.00;99.90;;;;;;5057524;28;20212;-63
2022/06/18 06:31:23;;;;;;;8.90;4.57;;;23.20;99.90;;;;;;5066343;28;20254;-63
2022/06/18 06:33:52;;;;;;;12.03;5.03;;;23.20;99.90;;;;;;5064721;28;20273;-63
2022/06/18 06:36:20;;;;;;;6.47;4.47;;;23.40;99.90;;;;;;5063849;28;20831;-63
2022/06/18 06:38:51;;;;;;;12.87;4.57;;;23.40;99.90;;;;;;5045215;28;20673;-63
2022/06/18 06:41:23;;;;;;;7.03;4.30;;;23.40;99.90;;;;;;5068823;28;20207;-64
2022/06/18 06:43:52;;;;;;;6.23;4.40;;;23.40;99.90;;;;;;5065192;28;20952;-63
2022/06/18 06:46:20;;;;;;;11.30;5.27;;;23.60;99.90;;;;;;5069460;28;20633;-64
2022/06/18 06:48:50;;;;;;;7.83;4.80;;;23.70;99.90;;;;;;5066394;28;20303;-64
2022/06/18 06:51:22;;;;;;;5.73;4.87;;;23.80;99.90;;;;;;5067027;28;20193;-64
2022/06/18 06:53:51;;;;;;;12.07;4.90;;;24.00;99.90;;;;;;5068861;28;20221;-63
2022/06/18 06:59:10;;;;;;;8.23;4.80;;;24.00;99.90;;;;;;5045216;28;20185;-64
2022/06/18 07:01:39;;;;;;;5.47;3.97;;;24.20;99.90;;;;;;5067326;28;20590;-63
2022/06/18 07:04:12;;;;;;;6.53;4.13;;;24.20;99.90;;;;;;5066259;28;20241;-64
2022/06/18 07:06:45;;;;;;;10.20;4.73;;;24.30;99.90;;;;;;5068110;28;20209;-64
2022/06/18 07:09:13;;;;;;;9.00;4.10;;;24.40;99.90;;;;;;5061527;28;20212;-63
2022/06/18 07:11:43;;;;;;;6.53;4.17;;;24.30;99.90;;;;;;5048080;28;20201;-64
2022/06/18 07:14:11;;;;;;;7.63;4.30;;;24.30;99.90;;;;;;5067591;28;20205;-63
2022/06/18 07:16:48;;;;;;;7.47;4.33;;;24.60;99.90;;;;;;5050204;28;20202;-64
2022/06/18 07:19:19;;;;;;;9.27;4.77;;;24.70;99.90;;;;;;5057459;28;20197;-64
2022/06/18 07:21:51;;;;;;;11.90;4.40;;;24.70;99.90;;;;;;5060354;28;20195;-64
2022/06/18 07:24:19;;;;;;;11.77;4.70;;;24.70;99.90;;;;;;5060898;28;20199;-64
2022/06/18 07:26:48;;;;;;;9.40;4.87;;;24.90;99.90;;;;;;5061537;28;20212;-64
2022/06/18 07:29:20;;;;;;;8.83;3.70;;;25.00;99.90;;;;;;5067475;28;20226;-63
2022/06/18 07:31:50;;;;;;;12.03;4.13;;;25.20;99.90;;;;;;5056818;28;20198;-63
2022/06/18 07:34:20;;;;;;;7.10;4.10;;;25.20;99.90;;;;;;5063050;28;20248;-64
2022/06/18 07:36:48;;;;;;;8.17;4.50;;;25.30;99.90;;;;;;5058829;28;20264;-64
2022/06/18 07:39:17;;;;;;;9.30;4.30;;;25.70;99.90;;;;;;5074952;28;20540;-64
2022/06/18 07:41:49;;;;;;;9.43;4.97;;;25.70;99.90;;;;;;5062179;28;20277;-64
2022/06/18 07:44:18;;;;;;;9.30;4.13;;;25.80;99.90;;;;;;5062657;28;20289;-63
2022/06/18 07:46:47;;;;;;;6.57;4.40;;;25.80;99.90;;;;;;5042935;28;20218;-63
2022/06/18 07:49:15;;;;;;;13.93;4.30;;;26.00;99.90;;;;;;5064470;28;20694;-64
2022/06/18 07:51:46;;;;;;;11.83;4.20;;;26.00;99.90;;;;;;5061425;28;20208;-64
2022/06/18 07:54:16;;;;;;;7.03;4.13;;;26.10;99.90;;;;;;5062069;28;20195;-64
2022/06/18 07:56:47;;;;;;;13.23;4.47;;;26.10;99.90;;;;;;5061972;28;20192;-63
2022/06/18 07:59:18;;;;;;;9.73;3.93;;;26.20;99.90;;;;;;5060040;28;20192;-64
2022/06/18 08:01:46;;;;;;;8.23;4.30;;;26.40;99.90;;;;;;5059846;28;20223;-64
2022/06/18 08:04:15;;;;;;;20.10;4.77;;;26.60;99.90;;;;;;5061693;28;20239;-64
2022/06/18 08:06:45;;;;;;;8.10;3.97;;;26.70;99.90;;;;;;5077344;28;20199;-64
2022/06/18 08:09:14;;;;;;;7.13;4.07;;;26.70;99.90;;;;;;5061810;28;21090;-64
2022/06/18 08:11:42;;;;;;;11.30;4.43;;;26.70;99.90;;;;;;5059064;28;20201;-64
2022/06/18 08:14:11;;;;;;;8.67;4.33;;;26.90;99.90;;;;;;5060551;28;20215;-64
2022/06/18 08:16:44;;;;;;;10.00;4.67;;;26.90;99.90;;;;;;5056475;28;20199;-63
2022/06/18 08:19:14;;;;;;;12.60;4.23;;;27.10;99.90;;;;;;5063236;28;20183;-64
2022/06/18 08:21:50;;;;;;;8.03;4.00;;;27.20;99.90;;;;;;5061423;28;20196;-64
2022/06/18 08:24:21;;;;;;;15.67;4.40;;;27.30;99.90;;;;;;5061711;28;20253;-65
2022/06/18 08:26:51;;;;;;;12.33;3.97;;;27.30;99.90;;;;;;5053467;28;20288;-64
2022/06/18 08:29:23;;;;;;;9.80;4.47;;;27.50;99.90;;;;;;5058267;28;20208;-64
2022/06/18 08:31:52;;;;;;;12.60;3.87;;;27.60;99.90;;;;;;5058270;28;20257;-64
2022/06/18 08:34:23;;;;;;;8.27;3.80;;;27.70;99.90;;;;;;5054148;28;20196;-63
2022/06/18 08:37:01;;;;;;;14.90;4.10;;;27.80;99.90;;;;;;5059224;28;20237;-64
2022/06/18 08:39:30;;;;;;;11.50;4.17;;;27.90;99.90;;;;;;5060405;28;20189;-64
2022/06/18 08:42:10;;;;;;;10.93;4.50;;;27.80;99.90;;;;;;5055280;28;20263;-64
2022/06/18 08:45:04;;;;;;;13.30;4.20;;;28.00;99.90;;;;;;5059843;28;20199;-64
2022/06/18 08:47:57;;;;;;;12.93;4.30;;;28.10;99.90;;;;;;5053425;28;20213;-64
2022/06/18 08:50:39;;;;;;;10.73;4.20;;;28.20;99.90;;;;;;5059350;28;20689;-64
2022/06/18 08:53:38;;;;;;;12.37;4.20;;;28.30;99.90;;;;;;5062627;28;20271;-63
2022/06/18 08:56:11;;;;;;;10.37;3.80;;;28.30;99.90;;;;;;5058449;28;20211;-64
2022/06/18 08:58:49;;;;;;;8.35;4.00;;;28.30;99.90;;;;;;5060559;28;20304;-64
2022/06/18 09:01:21;;;;;;;11.97;4.17;;;28.40;99.90;;;;;;5065023;28;20876;-63
2022/06/18 09:04:07;;;;;;;10.07;4.18;;;28.70;99.90;;;;;;5066230;28;20232;-64
2022/06/18 09:06:54;;;;;;;9.88;3.50;;;28.80;99.90;;;;;;5059527;28;20254;-63
2022/06/18 09:09:35;;;;;;;7.95;3.50;;;28.90;99.90;;;;;;5062604;28;20228;-64
2022/06/18 09:12:11;;;;;;;9.90;3.38;;;28.90;99.90;;;;;;5073795;28;20197;-63
2022/06/18 09:14:45;;;;;;;13.32;3.65;;;28.80;99.90;;;;;;5065210;28;20211;-63
2022/06/18 09:17:19;;;;;;;16.73;3.72;;;28.80;99.90;;;;;;5059892;28;20209;-63
2022/06/18 09:19:54;;;;;;;7.80;3.60;;;28.90;99.90;;;;;;5062956;28;20198;-64
2022/06/18 09:22:25;;;;;;;8.55;3.30;;;28.90;99.90;;;;;;5059073;28;20195;-63
2022/06/18 09:25:01;;;;;;;12.40;3.53;;;29.00;99.90;;;;;;5044311;28;20197;-62
2022/06/18 09:27:39;;;;;;;5.00;3.03;;;29.20;99.90;;;;;;5063683;28;20600;-63
2022/06/18 09:30:12;;;;;;;6.85;3.40;;;29.30;99.90;;;;;;5062730;28;20240;-63
2022/06/18 09:32:47;;;;;;;11.43;3.80;;;29.30;99.90;;;;;;5059296;28;20212;-64
2022/06/18 09:35:27;;;;;;;9.60;3.53;;;29.40;99.90;;;;;;5060713;28;20220;-63
2022/06/18 09:38:01;;;;;;;7.85;3.33;;;29.70;99.90;;;;;;5076674;28;20208;-63
2022/06/18 09:40:33;;;;;;;6.15;3.30;;;30.10;99.90;;;;;;5057546;28;20194;-63
2022/06/18 09:43:12;;;;;;;12.63;3.33;;;30.00;99.90;;;;;;5054589;28;20201;-62
2022/06/18 09:45:47;;;;;;;16.80;3.30;;;30.00;99.90;;;;;;5061874;28;20308;-63
2022/06/18 09:48:16;;;;;;;13.57;3.35;;;30.30;99.90;;;;;;5061270;28;20194;-62
2022/06/18 09:50:50;;;;;;;15.55;3.75;;;30.40;99.90;;;;;;5064538;28;20229;-63
2022/06/18 09:53:22;;;;;;;8.88;3.65;;;30.40;99.90;;;;;;5058469;28;20230;-63
2022/06/18 09:55:56;;;;;;;6.55;3.33;;;30.40;99.90;;;;;;5062989;28;20681;-63
2022/06/18 09:58:29;;;;;;;9.68;3.33;;;30.60;99.90;;;;;;5061692;28;20661;-62
2022/06/18 10:00:59;;;;;;;6.88;3.42;;;30.70;99.90;;;;;;5052336;28;20318;-63
2022/06/18 10:09:37;;;;;;;9.35;3.33;;;31.20;99.90;;;;;;5069704;28;20208;-62
2022/06/18 10:12:17;;;;;;;8.82;3.35;;;31.20;99.90;;;;;;5061570;28;20209;-63
2022/06/18 10:14:47;;;;;;;6.03;2.90;;;31.30;99.90;;;;;;5055178;28;20743;-62
2022/06/18 10:17:27;;;;;;;11.68;3.40;;;31.40;99.90;;;;;;5063157;28;20217;-62
2022/06/18 10:20:02;;;;;;;10.82;3.30;;;31.30;99.90;;;;;;5061532;28;20200;-62
2022/06/18 10:22:39;;;;;;;11.35;3.22;;;31.50;99.90;;;;;;5058272;28;20187;-62
2022/06/18 10:25:18;;;;;;;10.55;3.25;;;31.60;99.90;;;;;;5054550;28;20205;-62
2022/06/18 10:27:55;;;;;;;12.85;3.50;;;31.60;99.90;;;;;;5062514;28;20223;-62
2022/06/18 10:30:33;;;;;;;9.70;2.78;;;31.70;99.90;;;;;;5059037;28;20234;-62
2022/06/18 10:33:17;;;;;;;11.40;3.30;;;31.90;99.90;;;;;;5060799;28;20697;-62
2022/06/18 10:35:53;;;;;;;9.38;3.00;;;32.20;99.90;;;;;;5059400;28;20667;-63
2022/06/18 10:39:00;;;;;;;7.22;3.28;;;32.30;99.90;;;;;;5054634;28;20195;-62
2022/06/18 10:41:39;;;;;;;10.68;3.30;;;32.50;99.90;;;;;;5060812;28;20242;-62
2022/06/18 10:44:23;;;;;;;9.02;3.05;;;32.60;99.90;;;;;;5054985;28;20198;-63
2022/06/18 10:47:06;;;;;;;6.35;3.10;;;32.50;99.90;;;;;;5057792;28;20279;-62
2022/06/18 10:49:34;;;;;;;14.40;3.83;;;32.60;99.90;;;;;;5055328;28;20218;-62
2022/06/18 10:52:04;;;;;;;8.10;3.05;;;32.70;99.90;;;;;;5061283;28;20190;-63
2022/06/18 10:54:35;;;;;;;12.98;3.42;;;32.90;99.90;;;;;;5078920;28;20868;-62
2022/06/18 10:57:05;;;;;;;11.77;3.40;;;33.20;99.90;;;;;;5059294;28;20805;-63
2022/06/18 10:59:37;;;;;;;10.13;3.63;;;33.10;99.90;;;;;;5056656;28;20197;-62
2022/06/18 11:02:17;;;;;;;5.82;3.30;;;33.10;99.90;;;;;;5041124;28;20221;-63
2022/06/18 11:04:55;;;;;;;12.95;3.33;;;33.30;99.90;;;;;;5055718;28;20209;-63
2022/06/18 11:07:27;;;;;;;7.63;3.38;;;33.40;99.90;;;;;;5050928;28;20288;-63
2022/06/18 11:09:59;;;;;;;14.32;3.58;;;33.40;99.90;;;;;;5054892;28;20215;-62
2022/06/18 11:12:31;;;;;;;13.63;3.53;;;33.40;99.90;;;;;;5056209;28;20195;-63
2022/06/18 11:15:01;;;;;;;5.85;3.20;;;33.20;99.90;;;;;;5059395;28;20284;-63
2022/06/18 11:17:32;;;;;;;13.50;3.42;;;33.50;99.90;;;;;;5055810;28;21323;-62
2022/06/18 11:20:17;;;;;;;15.18;3.70;;;33.60;99.90;;;;;;5059028;28;20272;-62
2022/06/18 11:22:52;;;;;;;8.60;3.35;;;33.50;99.90;;;;;;5040396;28;20193;-62
2022/06/18 11:25:26;;;;;;;9.52;3.55;;;33.60;99.90;;;;;;5060042;28;20268;-62
2022/06/18 11:27:58;;;;;;;8.98;3.33;;;33.60;99.90;;;;;;5056802;28;20764;-63
2022/06/18 11:30:32;;;;;;;5.85;2.95;;;33.70;99.90;;;;;;5057651;28;20282;-63
2022/06/18 11:33:03;;;;;;;14.20;3.58;;;33.70;99.90;;;;;;5057571;28;20217;-63
2022/06/18 11:35:34;;;;;;;12.25;3.33;;;33.70;99.90;;;;;;5056835;28;20202;-62
2022/06/18 11:38:04;;;;;;;10.82;3.28;;;33.90;99.90;;;;;;5056601;28;20291;-63
2022/06/18 11:40:40;;;;;;;12.75;3.42;;;33.80;99.90;;;;;;5054105;28;20201;-63
2022/06/18 11:43:24;;;;;;;8.30;3.28;;;33.90;99.90;;;;;;5056847;28;20931;-63
2022/06/18 11:45:57;;;;;;;5.63;3.30;;;33.80;99.90;;;;;;5060957;28;20193;-63
2022/06/18 11:48:31;;;;;;;8.65;3.35;;;33.60;99.90;;;;;;5061044;28;20200;-63
2022/06/18 11:51:14;;;;;;;7.70;3.13;;;33.50;99.90;;;;;;5056503;28;20295;-63
2022/06/18 11:53:47;;;;;;;13.05;3.55;;;33.50;99.90;;;;;;5052673;28;20210;-63
2022/06/18 11:56:23;;;;;;;5.78;3.10;;;33.60;99.90;;;;;;5034894;28;20239;-63
2022/06/18 11:58:56;;;;;;;5.10;3.33;;;33.60;99.90;;;;;;5055894;28;20200;-63
2022/06/18 12:01:33;;;;;;;6.32;3.47;;;33.50;99.90;;;;;;5037785;28;20291;-63
2022/06/18 12:04:12;;;;;;;11.27;4.00;;;33.60;99.90;;;;;;5059848;28;21041;-62
2022/06/18 12:06:46;;;;;;;7.57;3.38;;;33.60;99.90;;;;;;5054596;28;20196;-63
2022/06/18 12:09:26;;;;;;;7.05;3.53;;;33.70;99.90;;;;;;5040138;28;20193;-62
2022/06/18 12:12:11;;;;;;;5.88;3.25;;;33.80;99.90;;;;;;5063374;28;20216;-63
2022/06/18 12:14:45;;;;;;;9.85;3.33;;;33.60;99.90;;;;;;5059541;28;20665;-62
2022/06/18 12:17:22;;;;;;;7.28;3.15;;;33.70;99.90;;;;;;5064636;28;20192;-62
2022/06/18 12:19:58;;;;;;;10.07;3.15;;;33.60;99.90;;;;;;5063156;28;21033;-62
2022/06/18 12:22:33;;;;;;;7.40;3.00;;;33.50;99.90;;;;;;5047351;28;20195;-63
2022/06/18 12:25:26;;;;;;;5.68;3.00;;;33.60;99.90;;;;;;5047720;28;21027;-63
2022/06/18 12:28:02;;;;;;;8.93;3.55;;;33.70;99.90;;;;;;5063069;28;20319;-62
2022/06/18 12:30:35;;;;;;;8.75;3.30;;;33.60;99.90;;;;;;5064973;28;20683;-62
2022/06/18 12:33:12;;;;;;;10.98;3.47;;;33.50;99.90;;;;;;5066898;28;20223;-62
2022/06/18 12:35:47;;;;;;;13.25;3.25;;;33.50;99.90;;;;;;5065033;28;20198;-62
2022/06/18 12:38:24;;;;;;;12.80;3.08;;;33.60;99.90;;;;;;5064254;28;20849;-63
2022/06/18 12:41:08;;;;;;;11.10;3.40;;;33.70;99.90;;;;;;5063705;28;20216;-63
2022/06/18 12:43:45;;;;;;;5.75;3.22;;;33.80;99.90;;;;;;5059846;28;20208;-62
2022/06/18 12:46:19;;;;;;;3.33;2.97;;;33.90;99.90;;;;;;5061787;28;20220;-62
2022/06/18 12:49:01;;;;;;;8.02;3.20;;;33.90;99.90;;;;;;5062112;28;20187;-62
2022/06/18 12:51:37;;;;;;;5.72;3.58;;;34.00;99.90;;;;;;5060682;28;20294;-62
2022/06/18 12:54:34;;;;;;;4.10;3.35;;;34.00;99.90;;;;;;5055545;28;20246;-63
2022/06/18 12:57:14;;;;;;;8.18;3.15;;;33.90;99.90;;;;;;5046988;28;20285;-62
2022/06/18 13:03:45;;;;;;;6.45;3.40;;;34.00;99.90;;;;;;5075252;28;20232;-60
2022/06/18 13:06:28;;;;;;;6.78;2.80;;;34.30;99.90;;;;;;5065515;28;20214;-60
2022/06/18 13:17:11;;;;;;;5.80;3.17;;;34.50;99.90;;;;;;5055695;28;20524;-60
2022/06/18 13:28:21;;;;;;;7.75;3.20;;;34.70;99.90;;;;;;5055265;28;20230;-61
2022/06/18 13:39:35;;;;;;;5.28;3.13;;;34.70;99.90;;;;;;5055083;28;20602;-60
2022/06/18 13:42:11;;;;;;;6.43;3.40;;;34.70;99.90;;;;;;5068248;28;20284;-60
2022/06/18 13:49:26;;;;;;;14.60;3.35;;;34.80;99.90;;;;;;5054764;28;20231;-60
2022/06/18 14:01:11;;;;;;;3.60;3.22;;;34.90;99.90;;;;;;5054772;28;20219;-59
2022/06/18 14:03:44;;;;;;;8.30;3.08;;;35.10;99.90;;;;;;5048322;28;20233;-60
2022/06/18 14:06:16;;;;;;;5.85;2.85;;;35.30;99.90;;;;;;5074524;28;20637;-60
2022/06/18 14:08:50;;;;;;;6.68;3.03;;;35.30;99.90;;;;;;5071129;28;20200;-60
2022/06/18 14:11:33;;;;;;;10.32;3.40;;;35.40;99.90;;;;;;5073770;28;20298;-60